Time;durP1;ratioP1;P1;durP2;ratioP2;P2;SDS_P1;SDS_P2;PMS_P1;PMS_P2;Temp;Humidity;BMP_temperature;BMP_pressure;BME280_temperature;BME280_humidity;BME280_pressure;Samples;Min_cycle;Max_cycle;Signal;HPM_P1;HPM_P2
2023/01/15 00:04:28;;;;;;;0.87;0.87;;;13.50;36.80;;;;;;10431518;28;20584;-81
2023/01/15 00:09:31;;;;;;;0.90;0.90;;;13.60;37.00;;;;;;10438673;28;20239;-81
2023/01/15 00:14:36;;;;;;;1.23;1.10;;;13.60;37.00;;;;;;10440949;28;20244;-81
2023/01/15 00:19:39;;;;;;;1.57;1.20;;;13.60;36.60;;;;;;10432339;28;20234;-81
2023/01/15 00:30:07;;;;;;;0.80;0.80;;;13.60;36.70;;;;;;10437750;28;20225;-81
2023/01/15 00:35:13;;;;;;;0.90;0.90;;;13.60;36.40;;;;;;10437653;28;20253;-82
2023/01/15 00:40:18;;;;;;;1.10;1.00;;;13.60;36.20;;;;;;10425769;28;20244;-82
2023/01/15 00:45:23;;;;;;;0.80;0.80;;;13.60;36.40;;;;;;10431561;28;20241;-81
2023/01/15 00:50:26;;;;;;;1.00;1.00;;;13.50;36.10;;;;;;10435175;28;20226;-81
2023/01/15 00:55:29;;;;;;;1.30;1.10;;;13.50;36.20;;;;;;10440955;28;20242;-81
2023/01/15 01:00:34;;;;;;;1.30;1.20;;;13.40;35.90;;;;;;10430038;28;20233;-81
2023/01/15 01:05:37;;;;;;;1.03;1.00;;;13.40;35.40;;;;;;10437097;28;20252;-82
2023/01/15 01:10:40;;;;;;;1.13;1.03;;;13.30;35.70;;;;;;10436189;28;20730;-81
2023/01/15 01:15:45;;;;;;;1.27;1.10;;;13.30;35.80;;;;;;10436983;28;20232;-81
2023/01/15 01:20:48;;;;;;;1.20;1.10;;;13.20;35.50;;;;;;10427051;28;20601;-81
2023/01/15 01:25:51;;;;;;;1.83;1.00;;;13.20;35.70;;;;;;10446331;28;20224;-81
2023/01/15 01:30:56;;;;;;;0.97;0.97;;;13.20;35.50;;;;;;10434539;28;20232;-81
2023/01/15 01:35:59;;;;;;;1.00;1.00;;;13.10;35.30;;;;;;10434081;28;20648;-81
2023/01/15 01:41:02;;;;;;;1.13;1.03;;;13.10;35.50;;;;;;10443946;28;20236;-82
2023/01/15 01:46:07;;;;;;;1.07;1.00;;;13.00;35.70;;;;;;10434171;28;20225;-81
2023/01/15 01:51:10;;;;;;;1.20;1.10;;;12.90;35.30;;;;;;10428238;28;20229;-80
2023/01/15 01:56:16;;;;;;;1.23;1.13;;;12.90;35.50;;;;;;10433790;28;20234;-81
2023/01/15 02:01:22;;;;;;;1.10;1.00;;;12.90;35.60;;;;;;10442590;28;20705;-82
2023/01/15 02:06:27;;;;;;;1.13;1.07;;;12.80;35.40;;;;;;10439891;28;20259;-82
2023/01/15 02:11:32;;;;;;;1.90;0.97;;;12.80;35.60;;;;;;10471755;22;20630;-73
2023/01/15 02:16:40;;;;;;;0.93;0.93;;;12.70;35.50;;;;;;10484742;28;20224;-73
2023/01/15 02:21:51;;;;;;;1.03;0.93;;;12.80;35.20;;;;;;10484350;28;20243;-73
2023/01/15 02:27:15;;;;;;;1.13;0.90;;;12.70;35.30;;;;;;10481420;28;20227;-73
2023/01/15 02:32:26;;;;;;;0.80;0.80;;;12.70;35.20;;;;;;10479404;28;20577;-73
2023/01/15 02:37:35;;;;;;;0.80;0.80;;;12.70;35.40;;;;;;10475804;28;20217;-73
2023/01/15 02:42:40;;;;;;;1.10;0.90;;;12.70;35.60;;;;;;10476985;28;20228;-73
2023/01/15 02:47:45;;;;;;;1.00;0.90;;;12.70;35.50;;;;;;10481040;28;20224;-73
2023/01/15 02:52:58;;;;;;;1.00;1.00;;;12.70;36.10;;;;;;10487445;22;20303;31
2023/01/15 02:58:09;;;;;;;1.40;1.30;;;12.70;36.30;;;;;;10449677;28;20843;-81
2023/01/15 03:03:19;;;;;;;1.30;1.20;;;12.60;36.60;;;;;;10476491;28;20225;-81
2023/01/15 03:08:22;;;;;;;1.37;1.27;;;12.60;36.60;;;;;;10494805;28;20240;-82
2023/01/15 03:13:36;;;;;;;1.13;1.03;;;12.50;36.50;;;;;;10491881;28;20232;-81
2023/01/15 03:18:45;;;;;;;1.27;1.10;;;12.30;36.60;;;;;;10493388;28;20228;-81
2023/01/15 03:23:54;;;;;;;1.10;1.00;;;12.20;36.80;;;;;;10492298;28;20721;-81
2023/01/15 03:29:00;;;;;;;1.73;0.90;;;12.20;36.80;;;;;;10490432;28;20217;-81
2023/01/15 03:34:06;;;;;;;0.80;0.80;;;12.10;36.80;;;;;;10491968;28;20224;-81
2023/01/15 03:39:09;;;;;;;0.90;0.90;;;12.00;36.80;;;;;;10486697;28;20235;-82
2023/01/15 03:44:24;;;;;;;0.80;0.80;;;11.90;36.90;;;;;;10493315;28;20232;-81
2023/01/15 03:49:38;;;;;;;0.83;0.83;;;11.80;37.40;;;;;;10486853;28;20801;-81
2023/01/15 03:54:48;;;;;;;0.80;0.80;;;11.80;37.70;;;;;;10492833;28;20699;-81
2023/01/15 03:59:57;;;;;;;0.90;0.90;;;11.80;37.60;;;;;;10489026;28;20823;-81
2023/01/15 04:05:01;;;;;;;0.90;0.90;;;11.80;37.70;;;;;;10472718;28;20232;-80
2023/01/15 04:10:08;;;;;;;1.07;0.97;;;11.70;37.60;;;;;;10483702;28;20224;-80
2023/01/15 04:15:13;;;;;;;1.47;0.90;;;11.80;37.80;;;;;;10487276;28;20243;-80
2023/01/15 04:20:17;;;;;;;0.90;0.90;;;11.80;37.70;;;;;;10485629;28;20239;-80
2023/01/15 04:25:20;;;;;;;0.90;0.90;;;11.70;37.60;;;;;;10488524;28;20599;-80
2023/01/15 04:30:24;;;;;;;1.80;0.80;;;11.60;37.60;;;;;;10488287;28;20315;-80
2023/01/15 04:35:28;;;;;;;1.20;1.10;;;11.50;37.80;;;;;;10481141;28;20224;-80
2023/01/15 04:45:53;;;;;;;1.33;0.93;;;11.40;37.80;;;;;;10486443;28;20239;-79
2023/01/15 04:51:02;;;;;;;0.93;0.90;;;11.30;38.20;;;;;;10482652;28;20227;-80
2023/01/15 04:56:06;;;;;;;1.50;1.20;;;11.30;38.20;;;;;;10483738;28;20224;-80
2023/01/15 05:01:12;;;;;;;1.10;0.90;;;11.30;38.20;;;;;;10487834;28;20271;-80
2023/01/15 05:06:17;;;;;;;0.83;0.80;;;11.30;38.30;;;;;;10481317;28;20239;-80
2023/01/15 05:11:20;;;;;;;0.80;0.80;;;11.30;38.20;;;;;;10486636;28;20236;-80
2023/01/15 05:16:27;;;;;;;0.87;0.80;;;11.30;38.40;;;;;;10484303;28;20577;-80
2023/01/15 05:21:32;;;;;;;1.37;1.00;;;11.30;38.60;;;;;;10485935;28;20606;-80
2023/01/15 05:26:36;;;;;;;1.03;0.90;;;11.30;38.40;;;;;;10487727;28;20227;-81
2023/01/15 05:31:43;;;;;;;0.83;0.83;;;11.40;38.40;;;;;;10500675;28;20236;-79
2023/01/15 05:36:47;;;;;;;0.80;0.80;;;11.40;38.40;;;;;;10497760;28;20228;-79
2023/01/15 05:41:50;;;;;;;1.00;0.90;;;11.40;39.00;;;;;;10501034;28;20638;-80
2023/01/15 05:46:57;;;;;;;0.97;0.90;;;11.40;38.20;;;;;;10500365;28;20688;-80
2023/01/15 05:52:01;;;;;;;1.17;1.10;;;11.40;38.20;;;;;;10498866;28;20232;-80
2023/01/15 05:57:05;;;;;;;1.30;1.20;;;11.40;38.30;;;;;;10499933;28;20243;-80
2023/01/15 06:02:09;;;;;;;1.30;1.20;;;11.40;38.20;;;;;;10500290;28;20687;-80
2023/01/15 06:07:12;;;;;;;1.30;1.10;;;11.50;38.20;;;;;;10497686;28;20227;-80
2023/01/15 06:12:15;;;;;;;1.23;1.20;;;11.50;38.20;;;;;;10500289;28;20315;-82
2023/01/15 06:17:20;;;;;;;1.37;1.27;;;11.60;38.30;;;;;;10498579;28;20232;-80
2023/01/15 06:22:23;;;;;;;2.60;2.40;;;11.60;38.30;;;;;;10497225;28;20224;-81
2023/01/15 06:27:28;;;;;;;1.10;1.10;;;11.70;38.30;;;;;;10498221;28;20228;-80
2023/01/15 06:32:32;;;;;;;0.83;0.83;;;11.80;38.80;;;;;;10499843;28;20236;-80
2023/01/15 06:37:35;;;;;;;1.03;0.97;;;11.90;39.40;;;;;;10499708;28;20295;-80
2023/01/15 06:48:01;;;;;;;0.70;0.70;;;12.50;39.60;;;;;;10492673;28;20650;-80
2023/01/15 06:53:04;;;;;;;0.80;0.73;;;12.90;39.30;;;;;;10491329;28;20225;-80
2023/01/15 06:58:07;;;;;;;0.80;0.80;;;13.20;39.20;;;;;;10492404;28;20235;-80
2023/01/15 07:03:13;;;;;;;1.20;1.10;;;13.50;39.20;;;;;;10489156;28;20236;-80
2023/01/15 07:08:16;;;;;;;1.07;1.07;;;13.70;38.80;;;;;;10486554;28;20245;-80
2023/01/15 07:13:19;;;;;;;0.80;0.80;;;13.90;38.60;;;;;;10486567;28;20240;-80
2023/01/15 07:18:23;;;;;;;0.90;0.90;;;14.00;38.30;;;;;;10485679;28;20240;-81
2023/01/15 07:23:28;;;;;;;0.50;0.50;;;14.20;38.90;;;;;;10487173;28;20259;-80
2023/01/15 07:28:31;;;;;;;0.70;0.70;;;14.30;37.90;;;;;;10484158;28;20220;-80
2023/01/15 07:33:35;;;;;;;0.70;0.70;;;14.30;37.70;;;;;;10487156;28;20224;-80
2023/01/15 07:38:41;;;;;;;0.60;0.60;;;14.40;37.70;;;;;;10483744;28;20700;-80
2023/01/15 07:54:31;;;;;;;0.60;0.60;;;14.50;37.20;;;;;;10487490;28;20285;-80
2023/01/15 07:59:34;;;;;;;0.63;0.63;;;14.60;37.50;;;;;;10487872;28;20228;-80
2023/01/15 08:04:39;;;;;;;0.50;0.50;;;14.60;37.50;;;;;;10487407;28;20232;-81
2023/01/15 08:09:42;;;;;;;0.60;0.60;;;14.60;37.40;;;;;;10482367;28;20362;-79
2023/01/15 08:20:10;;;;;;;0.57;0.57;;;14.60;37.40;;;;;;10491322;28;20230;-80
2023/01/15 08:25:15;;;;;;;1.37;0.80;;;14.70;37.40;;;;;;10489673;28;20224;-81
2023/01/15 08:30:21;;;;;;;0.80;0.80;;;14.70;37.40;;;;;;10490061;28;20228;-81
2023/01/15 08:35:26;;;;;;;1.07;0.90;;;14.70;37.50;;;;;;10485005;28;20699;-80
2023/01/15 08:40:29;;;;;;;0.80;0.80;;;14.80;37.50;;;;;;10488104;28;20228;-81
2023/01/15 08:45:32;;;;;;;0.60;0.60;;;14.80;37.60;;;;;;10487130;28;20759;-81
2023/01/15 08:50:37;;;;;;;1.07;0.93;;;14.80;37.50;;;;;;10488227;28;20228;-81
2023/01/15 08:55:40;;;;;;;0.87;0.60;;;14.80;37.50;;;;;;10483661;28;20671;-75
2023/01/15 09:00:44;;;;;;;0.70;0.70;;;14.90;37.50;;;;;;10469708;28;20630;-75
2023/01/15 09:05:49;;;;;;;0.70;0.70;;;14.90;37.30;;;;;;10468208;28;20231;-78
2023/01/15 09:10:56;;;;;;;0.80;0.80;;;14.90;37.70;;;;;;10475834;28;20224;-76
2023/01/15 09:16:00;;;;;;;1.50;1.40;;;14.90;37.70;;;;;;10476406;28;20231;-80
2023/01/15 09:21:05;;;;;;;1.63;0.80;;;14.90;38.00;;;;;;10472995;28;20224;-78
2023/01/15 09:26:23;;;;;;;0.60;0.60;;;14.80;38.10;;;;;;10475029;28;20243;-76
2023/01/15 09:31:27;;;;;;;0.50;0.50;;;14.70;37.60;;;;;;10473825;28;20321;-77
2023/01/15 09:36:34;;;;;;;0.50;0.50;;;14.40;37.80;;;;;;10473420;28;20274;-76
2023/01/15 09:42:06;;;;;;;0.50;0.50;;;14.00;38.30;;;;;;10472338;28;20243;-77
2023/01/15 09:47:15;;;;;;;0.50;0.50;;;13.60;39.20;;;;;;10472050;28;20236;-77
2023/01/15 09:52:31;;;;;;;0.73;0.70;;;13.30;38.90;;;;;;10471517;28;20290;-77
2023/01/15 09:57:35;;;;;;;0.60;0.60;;;13.00;39.60;;;;;;10471034;28;20227;-77
2023/01/15 10:02:45;;;;;;;0.77;0.77;;;12.70;38.90;;;;;;10471024;28;20224;-78
2023/01/15 10:07:57;;;;;;;0.60;0.60;;;12.50;39.60;;;;;;10475960;28;20240;-78
2023/01/15 10:13:14;;;;;;;0.50;0.50;;;12.30;39.30;;;;;;10477082;28;20236;-77
2023/01/15 10:18:21;;;;;;;0.50;0.50;;;12.10;39.60;;;;;;10478602;28;20230;-78
2023/01/15 10:23:35;;;;;;;0.50;0.50;;;11.80;39.70;;;;;;10475486;28;20622;-78
2023/01/15 10:28:58;;;;;;;0.50;0.50;;;11.60;40.80;;;;;;10476124;28;20243;-77
2023/01/15 10:34:21;;;;;;;0.60;0.60;;;11.40;40.80;;;;;;10478378;28;20252;-77
2023/01/15 10:39:34;;;;;;;1.03;0.93;;;11.40;40.10;;;;;;10482701;28;20694;-78
2023/01/15 10:44:45;;;;;;;0.50;0.50;;;11.30;39.40;;;;;;10489501;28;20232;-78
2023/01/15 10:49:50;;;;;;;1.50;0.60;;;11.20;39.10;;;;;;10482078;28;20599;-78
2023/01/15 10:55:03;;;;;;;1.00;0.50;;;11.20;38.80;;;;;;10480714;28;20289;-78
2023/01/15 11:00:10;;;;;;;0.50;0.50;;;11.20;39.10;;;;;;10473726;28;20232;-81
2023/01/15 11:05:16;;;;;;;0.60;0.60;;;11.00;38.90;;;;;;10488456;28;20224;-77
2023/01/15 11:10:23;;;;;;;0.50;0.50;;;10.90;39.10;;;;;;10487324;28;20567;-77
2023/01/15 11:20:49;;;;;;;0.50;0.50;;;10.80;39.10;;;;;;10483884;28;20250;-77
2023/01/15 11:25:56;;;;;;;0.50;0.50;;;10.70;39.50;;;;;;10484027;28;20225;-77
2023/01/15 11:30:59;;;;;;;0.60;0.60;;;10.70;39.50;;;;;;10483804;28;20316;-77
2023/01/15 11:36:04;;;;;;;0.40;0.40;;;10.60;39.20;;;;;;10486529;28;20232;-77
2023/01/15 11:41:21;;;;;;;1.83;1.47;;;10.50;39.20;;;;;;10486455;28;20228;-77
2023/01/15 11:51:50;;;;;;;0.87;0.87;;;10.40;39.70;;;;;;10485055;28;20247;-77
2023/01/15 11:56:56;;;;;;;0.90;0.90;;;10.30;39.70;;;;;;10484669;28;20723;-77
2023/01/15 12:02:03;;;;;;;1.50;0.80;;;10.20;40.10;;;;;;10487300;28;21073;-76
2023/01/15 12:07:12;;;;;;;0.60;0.60;;;10.20;40.10;;;;;;10489835;28;20232;-76
2023/01/15 12:12:26;;;;;;;0.80;0.80;;;10.20;40.10;;;;;;10486005;28;20232;-76
2023/01/15 12:17:48;;;;;;;0.70;0.70;;;10.20;40.20;;;;;;10483626;28;20781;-76
2023/01/15 12:23:05;;;;;;;0.70;0.70;;;10.20;40.10;;;;;;10486227;28;20598;-77
2023/01/15 12:28:16;;;;;;;0.70;0.70;;;10.20;40.10;;;;;;10482273;28;20247;-77
2023/01/15 12:33:28;;;;;;;0.70;0.70;;;10.20;40.20;;;;;;10475048;28;20309;-77
2023/01/15 12:38:50;;;;;;;0.63;0.60;;;10.20;40.10;;;;;;10478341;28;20228;-77
2023/01/15 12:49:31;;;;;;;0.50;0.50;;;10.20;40.10;;;;;;10481955;28;20277;-77
2023/01/15 12:54:41;;;;;;;0.70;0.70;;;10.20;40.00;;;;;;10474152;28;20596;-77
2023/01/15 12:59:53;;;;;;;0.80;0.80;;;10.10;39.10;;;;;;10478111;28;20220;-77
2023/01/15 13:05:07;;;;;;;0.50;0.50;;;9.90;39.90;;;;;;10482691;28;20278;-77
2023/01/15 13:10:16;;;;;;;0.70;0.70;;;9.80;40.50;;;;;;10484323;28;20224;-77
2023/01/15 13:15:26;;;;;;;0.60;0.60;;;9.70;40.60;;;;;;10485270;28;20247;-77
2023/01/15 13:20:43;;;;;;;0.83;0.83;;;9.60;40.50;;;;;;10485528;28;20560;-77
2023/01/15 13:25:58;;;;;;;0.70;0.70;;;9.50;40.50;;;;;;10485470;28;20644;-77
2023/01/15 13:31:12;;;;;;;0.50;0.50;;;9.40;40.40;;;;;;10481112;28;20224;-77
2023/01/15 13:36:18;;;;;;;0.80;0.80;;;9.30;40.40;;;;;;10484907;28;20232;-77
2023/01/15 13:46:46;;;;;;;1.87;1.77;;;9.30;40.70;;;;;;10474357;28;20240;-78
2023/01/15 13:51:50;;;;;;;0.70;0.70;;;9.20;40.20;;;;;;10490325;28;20242;-78
2023/01/15 13:56:54;;;;;;;0.60;0.60;;;9.20;40.90;;;;;;10492857;28;20224;-79
2023/01/15 14:01:58;;;;;;;0.60;0.60;;;9.10;40.10;;;;;;10491231;28;20239;-79
2023/01/15 14:07:02;;;;;;;0.60;0.60;;;9.00;40.40;;;;;;10484572;28;20232;-78
2023/01/15 14:12:17;;;;;;;0.60;0.60;;;8.90;40.00;;;;;;10483791;28;20237;-78
2023/01/15 14:17:48;;;;;;;0.50;0.50;;;8.80;40.40;;;;;;10485682;28;20239;-78
2023/01/15 14:23:10;;;;;;;0.70;0.70;;;8.80;40.50;;;;;;10490846;28;20236;-77
2023/01/15 14:28:36;;;;;;;0.70;0.70;;;8.70;40.90;;;;;;10486610;28;20228;-77
2023/01/15 14:33:55;;;;;;;0.80;0.80;;;8.80;41.00;;;;;;10481165;28;20228;-76
2023/01/15 14:39:00;;;;;;;0.40;0.40;;;8.70;40.60;;;;;;10489853;28;20250;-76
2023/01/15 14:44:05;;;;;;;0.60;0.60;;;8.70;40.40;;;;;;10482160;28;20229;-76
2023/01/15 14:49:29;;;;;;;0.70;0.70;;;8.70;40.40;;;;;;10487391;28;20232;-77
2023/01/15 14:54:33;;;;;;;1.10;1.00;;;8.70;40.80;;;;;;10489020;28;20232;-77
2023/01/15 14:59:45;;;;;;;0.90;0.90;;;8.70;40.40;;;;;;10489172;28;20251;-77
2023/01/15 15:04:53;;;;;;;0.90;0.90;;;8.60;40.40;;;;;;10484092;28;21046;-78
2023/01/15 15:10:01;;;;;;;0.80;0.80;;;8.60;40.30;;;;;;10480500;28;20228;-77
2023/01/15 15:15:12;;;;;;;1.40;1.30;;;8.50;40.40;;;;;;10481766;28;20647;-77
2023/01/15 15:20:28;;;;;;;1.60;1.50;;;8.30;40.40;;;;;;10487586;28;20228;-78
2023/01/15 15:25:36;;;;;;;1.17;1.07;;;8.30;40.50;;;;;;10482429;28;20318;-78
2023/01/15 15:30:44;;;;;;;1.10;1.10;;;8.20;40.50;;;;;;10487004;28;20232;-78
2023/01/15 15:35:53;;;;;;;1.77;1.20;;;8.20;40.40;;;;;;10483783;28;20273;-77
2023/01/15 15:40:58;;;;;;;0.80;0.80;;;8.20;40.40;;;;;;10485856;28;20234;-77
2023/01/15 15:51:40;;;;;;;0.80;0.80;;;8.20;40.40;;;;;;10358459;28;20249;-77
2023/01/15 15:56:53;;;;;;;1.40;1.30;;;8.20;40.70;;;;;;10455977;28;20224;-77
2023/01/15 16:01:58;;;;;;;1.20;1.10;;;8.30;40.90;;;;;;10484186;28;20258;-77
2023/01/15 16:07:12;;;;;;;1.13;1.13;;;8.30;40.60;;;;;;10486372;28;20282;-77
2023/01/15 16:12:17;;;;;;;1.50;1.40;;;8.30;40.80;;;;;;10486896;28;20259;-77
2023/01/15 16:17:20;;;;;;;3.77;2.90;;;8.40;40.50;;;;;;10486321;28;20231;-77
2023/01/15 16:22:25;;;;;;;1.70;1.60;;;8.40;40.40;;;;;;10482486;28;20228;-77
2023/01/15 16:27:34;;;;;;;2.00;1.90;;;8.40;41.00;;;;;;10482807;28;20240;-77
2023/01/15 16:32:43;;;;;;;1.27;1.20;;;8.40;40.90;;;;;;10484547;28;20229;-77
2023/01/15 16:37:53;;;;;;;2.17;1.97;;;8.40;40.50;;;;;;10483737;28;20568;-77
2023/01/15 16:43:06;;;;;;;1.50;1.40;;;8.30;40.90;;;;;;10486383;28;20228;-77
2023/01/15 16:48:24;;;;;;;1.40;1.30;;;8.30;41.10;;;;;;10485962;28;20224;-77
2023/01/15 16:53:40;;;;;;;1.20;1.20;;;8.10;40.90;;;;;;10485507;28;20236;-78
2023/01/15 16:58:44;;;;;;;1.60;1.50;;;8.10;41.60;;;;;;10488280;28;20223;-79
2023/01/15 17:03:47;;;;;;;1.80;1.70;;;8.00;41.20;;;;;;10488638;28;20236;-79
2023/01/15 17:08:53;;;;;;;2.10;2.00;;;8.00;41.30;;;;;;10488857;28;20711;-78
2023/01/15 17:14:20;;;;;;;1.50;1.40;;;8.00;41.80;;;;;;10488504;28;20239;-78
2023/01/15 17:19:23;;;;;;;1.60;1.50;;;8.00;42.30;;;;;;10478859;28;20226;-78
2023/01/15 17:24:27;;;;;;;1.30;1.20;;;8.00;41.70;;;;;;10487852;28;20236;-78
2023/01/15 17:29:30;;;;;;;1.80;1.40;;;8.00;41.80;;;;;;10487646;28;20225;-78
2023/01/15 17:34:34;;;;;;;1.00;1.00;;;8.00;41.60;;;;;;10486688;28;20230;-78
2023/01/15 17:39:38;;;;;;;1.33;1.23;;;8.00;41.60;;;;;;10488751;28;20252;-78
2023/01/15 17:44:41;;;;;;;1.50;1.40;;;8.10;41.70;;;;;;10490828;28;20227;-78
2023/01/15 17:49:45;;;;;;;1.30;1.20;;;8.10;41.40;;;;;;10483918;28;20228;-78
2023/01/15 18:05:34;;;;;;;1.00;1.00;;;8.20;41.30;;;;;;10482085;28;20235;-78
2023/01/15 18:10:38;;;;;;;0.80;0.80;;;8.20;41.10;;;;;;10484928;28;20699;-78
2023/01/15 18:15:42;;;;;;;0.90;0.90;;;8.20;41.10;;;;;;10477883;28;20282;-79
2023/01/15 18:20:45;;;;;;;1.00;1.00;;;8.20;40.90;;;;;;10474601;28;20244;-78
2023/01/15 18:25:50;;;;;;;1.17;1.03;;;8.10;40.80;;;;;;10485597;28;20243;-78
2023/01/15 18:30:53;;;;;;;1.23;1.07;;;8.10;40.90;;;;;;10479413;28;20311;-78
2023/01/15 18:36:05;;;;;;;1.30;1.20;;;8.00;40.80;;;;;;10488341;28;20259;-78
2023/01/15 18:41:11;;;;;;;1.40;1.20;;;7.80;41.00;;;;;;10491973;28;20224;-78
2023/01/15 18:51:38;;;;;;;1.10;1.00;;;7.70;40.90;;;;;;10488062;28;20220;-78
2023/01/15 18:56:46;;;;;;;1.23;1.13;;;7.70;40.80;;;;;;10491941;28;20225;-78
2023/01/15 19:01:50;;;;;;;1.10;1.00;;;7.60;40.90;;;;;;10492173;28;20263;-78
2023/01/15 19:06:53;;;;;;;1.30;1.20;;;7.50;40.80;;;;;;10491376;28;20233;-78
2023/01/15 19:11:58;;;;;;;1.20;1.10;;;7.50;40.60;;;;;;10488818;28;20232;-78
2023/01/15 19:27:46;;;;;;;1.37;1.10;;;7.40;40.60;;;;;;10486503;28;20236;-79
2023/01/15 19:32:50;;;;;;;1.23;1.00;;;7.30;40.50;;;;;;10492778;28;20241;-79
2023/01/15 19:37:53;;;;;;;1.50;1.07;;;7.30;40.50;;;;;;10491494;28;20232;-79
2023/01/15 19:53:41;;;;;;;1.00;1.00;;;7.30;40.10;;;;;;10497227;28;20715;-79
2023/01/15 19:58:45;;;;;;;1.63;1.33;;;7.20;40.20;;;;;;10488973;28;20231;-79
2023/01/15 20:03:49;;;;;;;0.90;0.90;;;7.30;40.10;;;;;;10499045;28;20232;-79
2023/01/15 20:08:53;;;;;;;0.80;0.80;;;7.30;40.00;;;;;;10502739;28;20263;-79
2023/01/15 20:13:58;;;;;;;1.30;1.20;;;7.30;40.10;;;;;;10499231;28;20228;-79
2023/01/15 20:19:01;;;;;;;1.80;1.13;;;7.20;39.90;;;;;;10499989;28;20232;-79
2023/01/15 20:24:05;;;;;;;0.90;0.90;;;7.20;40.00;;;;;;10500532;28;20240;-80
2023/01/15 20:29:10;;;;;;;1.27;1.07;;;7.20;39.90;;;;;;10500610;28;20246;-80
2023/01/15 20:34:13;;;;;;;1.37;1.10;;;7.20;39.80;;;;;;10501489;28;20243;-80
2023/01/15 20:39:17;;;;;;;1.40;1.17;;;7.20;39.80;;;;;;10499696;28;20263;-80
2023/01/15 20:49:42;;;;;;;1.83;0.93;;;7.10;39.70;;;;;;10500253;28;20293;-80
2023/01/15 20:54:45;;;;;;;1.10;1.00;;;7.10;39.60;;;;;;10494770;28;20240;-80
2023/01/15 20:59:50;;;;;;;1.67;1.57;;;7.10;39.60;;;;;;10498170;28;20723;-80
2023/01/15 21:04:53;;;;;;;1.30;1.20;;;7.10;39.40;;;;;;10494075;28;20235;-80
2023/01/15 21:09:56;;;;;;;0.80;0.80;;;7.00;39.50;;;;;;10493571;28;20231;-79
2023/01/15 21:15:01;;;;;;;1.53;1.00;;;7.10;39.70;;;;;;10489623;28;20290;-79
2023/01/15 21:20:06;;;;;;;2.30;1.40;;;7.10;39.40;;;;;;10489413;28;20232;-79
2023/01/15 21:25:09;;;;;;;2.13;1.03;;;7.10;39.30;;;;;;10488190;28;20233;-79
2023/01/15 21:30:14;;;;;;;1.20;1.10;;;7.10;39.20;;;;;;10484150;28;20242;-79
2023/01/15 21:35:18;;;;;;;0.97;0.93;;;7.10;39.10;;;;;;10482840;28;20724;-79
2023/01/15 21:40:21;;;;;;;1.13;0.90;;;7.10;39.30;;;;;;10485133;28;20232;-79
2023/01/15 21:45:26;;;;;;;1.00;0.80;;;7.10;39.20;;;;;;10484889;28;20243;-79
2023/01/15 21:50:32;;;;;;;1.83;0.93;;;7.20;39.00;;;;;;10486958;28;20235;-79
2023/01/15 21:55:35;;;;;;;0.87;0.80;;;7.10;38.80;;;;;;10491706;28;20278;-78
2023/01/15 22:00:41;;;;;;;2.03;0.97;;;7.10;39.00;;;;;;10489064;28;20719;-80
2023/01/15 22:05:45;;;;;;;0.70;0.70;;;7.10;39.00;;;;;;10486465;28;20228;-79
2023/01/15 22:10:48;;;;;;;0.67;0.67;;;7.00;38.80;;;;;;10488776;28;20689;-80
2023/01/15 22:15:56;;;;;;;1.07;0.80;;;7.00;38.90;;;;;;10494673;28;20265;-79
2023/01/15 22:21:01;;;;;;;1.57;0.80;;;6.90;38.60;;;;;;10496554;28;20231;-79
2023/01/15 22:26:04;;;;;;;1.93;0.90;;;6.90;39.00;;;;;;10494824;28;20232;-79
2023/01/15 22:31:09;;;;;;;1.43;0.90;;;6.90;39.00;;;;;;10495263;28;20224;-79
2023/01/15 22:36:13;;;;;;;1.33;0.80;;;6.90;38.90;;;;;;10493086;28;20343;-79
2023/01/15 22:42:22;;;;;;;1.87;0.77;;;6.90;39.00;;;;;;10493760;28;20238;-79
2023/01/15 22:46:41;;;;;;;0.60;0.60;;;6.90;38.90;;;;;;10492583;28;20256;-80
2023/01/15 22:51:44;;;;;;;1.47;0.90;;;6.90;38.70;;;;;;10491573;28;20278;-79
2023/01/15 22:56:48;;;;;;;1.90;0.80;;;6.90;38.70;;;;;;10488313;28;20646;-79
2023/01/15 23:01:52;;;;;;;0.80;0.80;;;6.80;38.40;;;;;;10489217;28;20248;-80
2023/01/15 23:06:56;;;;;;;0.90;0.80;;;6.90;38.60;;;;;;10489616;28;20224;-79
2023/01/15 23:11:59;;;;;;;3.10;1.10;;;6.90;38.60;;;;;;10489842;28;20285;-79
2023/01/15 23:17:04;;;;;;;3.77;1.60;;;6.90;38.40;;;;;;10488712;28;20225;-79
2023/01/15 23:22:07;;;;;;;1.80;0.83;;;7.00;38.40;;;;;;10491555;28;20236;-79
2023/01/15 23:27:12;;;;;;;2.13;0.90;;;7.00;38.40;;;;;;10492075;28;20241;-80
2023/01/15 23:32:20;;;;;;;1.17;0.83;;;7.10;38.50;;;;;;10489941;28;20747;-79
2023/01/15 23:37:23;;;;;;;1.23;0.90;;;7.00;38.40;;;;;;10486858;28;20229;-79
2023/01/15 23:47:48;;;;;;;1.53;1.00;;;6.90;38.30;;;;;;10498048;28;20236;-80
2023/01/15 23:52:52;;;;;;;1.83;0.90;;;6.80;38.30;;;;;;10500772;28;20228;-79
2023/01/15 23:57:55;;;;;;;0.97;0.90;;;6.80;38.30;;;;;;10497815;28;20247;-79
